Avis, Pennsylvania
Current Conditions -  °F | °C
As of 3:54 PM on Friday 24 Oct 2014 (Local Time) from KIPT Reporting Station
Clear Clear  
Wind Chill: 70°   Ceiling: Unl
Heat Index: 70°   Visibility: 10mi
Dew Point: 25°   Wind: 12mph
Humidity: 18%   Direction: 290°WNW
Pressure: 29.84"   Gusts: NA
Location:  41.18°N, 77.31°W
Report Text: KIPT 241954Z 29010KT 10SM CLR 21/M04 A2984 RMK AO2 SLP105 T02111039
Loading
Personal Weather Stations






























Interactive Weather Map
Tropical Storm Tracking
New forecast layout! Learn more

10-Day Weather Forecast

Advertisements
Track Severe Weather on mobile